Airfield :
LOGIN :

Register | Disclaimer

   EN    FR    IT 

 










Legend :    VFR   Marginal VFR   IFR   Intensive IFR   Very Intensive IFR
Visi :
Ceiling :
>= 8 km
>= 3000ft
5 to 8 km
1000 to 3000 ft
1500m to 5 km
500 to 1000 ft
800 to 1500m
200 to 500 ft
< 800m
< 200 ft
Symbols :   Thunderstorms  Fog  Heavy snow  Heavy precipitations  Wind > 20 kt
SIGMETs :     Misc.  Thunderstorms  Icing  Turbulence  Mountain Waves  Volcanic Ashes






- Airport Elevation : 357 ft
- IATA code : TUF


LFOT - Tours

CURRENT METAR :
  • 071030Z AUTO 19005KT 130V280 9999 BKN046 13/02 Q1019 NOSIG

EXPIRED METARs :
  • 071000Z AUTO VRB03KT 9999 BKN041 13/02 Q1019 NOSIG
  • 070930Z AUTO VRB02KT 9999 SCT037 12/03 Q1019 NOSIG
  • 070900Z AUTO VRB02KT CAVOK 11/03 Q1018 NOSIG
  • 070830Z AUTO VRB01KT CAVOK 12/03 Q1018 NOSIG
  • 070800Z AUTO VRB02KT CAVOK 11/04 Q1018 NOSIG

TAF TAF LFOT
Valid from the 07 at 06:00 until the 08 at 06:00 UTC


070500Z 0706/0806 30008KT CAVOK
BECMG 0715/0717 17004KT
TEMPO 0804/0806 BKN012



MET'MAP, your aeronautical weather chart ! - Copyright ORBIFLY December 2007 - Disclaimer

ORBIFLY MET'MAP TEAM :

Programming & Development : Alexandra Zaïnal
Concept & original design : Baudouin d'Aumeries
Assistance for programming : Marc-Olivier Méhu
Technical & hardware support : Manuel Goepfert

Contact : metmap@orbifly.com




SOURCES & CREDITS :

   NOAA